createdAt,value
2023-06-15T00:00:11.510Z,0.00
2023-06-15T00:01:11.488Z,0.00
2023-06-15T00:02:12.237Z,0.00
2023-06-15T00:03:13.258Z,0.00
2023-06-15T00:04:11.521Z,0.00
2023-06-15T00:05:11.510Z,0.00
2023-06-15T00:06:13.216Z,0.00
2023-06-15T00:07:11.389Z,0.00
2023-06-15T00:08:11.383Z,0.00
2023-06-15T00:09:11.356Z,0.00
2023-06-15T00:10:11.356Z,0.00
2023-06-15T00:11:11.357Z,0.00
2023-06-15T00:12:11.349Z,0.00
2023-06-15T00:13:11.338Z,0.00
2023-06-15T00:14:11.335Z,0.00
2023-06-15T00:15:11.324Z,0.00
2023-06-15T00:16:12.129Z,0.00
2023-06-15T00:17:11.287Z,0.00
2023-06-15T00:18:11.345Z,0.00
2023-06-15T00:20:44.372Z,0.00
2023-06-15T00:21:44.365Z,0.00
2023-06-15T00:22:44.413Z,0.00
2023-06-15T00:23:44.387Z,0.00
2023-06-15T00:24:44.336Z,0.00
2023-06-15T00:25:44.335Z,0.00
2023-06-15T00:26:44.313Z,0.00
2023-06-15T00:27:44.320Z,0.00
2023-06-15T00:28:44.338Z,0.00
2023-06-15T00:29:44.296Z,0.00
2023-06-15T00:30:44.341Z,0.00
2023-06-15T00:31:44.280Z,0.00
2023-06-15T00:32:47.090Z,0.00
2023-06-15T00:33:47.081Z,0.00
2023-06-15T00:34:45.348Z,0.00
2023-06-15T00:35:45.359Z,0.00
2023-06-15T00:36:45.353Z,0.00
2023-06-15T00:37:45.384Z,0.00
2023-06-15T00:38:46.011Z,0.00
2023-06-15T00:39:45.342Z,0.00
2023-06-15T00:40:45.303Z,0.00
2023-06-15T00:41:45.301Z,0.00
2023-06-15T00:42:45.279Z,0.00
2023-06-15T00:43:45.277Z,0.00
2023-06-15T00:44:45.277Z,0.00
2023-06-15T00:45:45.270Z,0.00
2023-06-15T00:46:45.269Z,0.00
2023-06-15T00:47:45.321Z,0.00
2023-06-15T00:48:45.249Z,0.00
2023-06-15T00:49:45.228Z,0.00
2023-06-15T00:50:47.543Z,0.00
2023-06-15T00:51:45.218Z,0.00
2023-06-15T00:52:46.205Z,0.00
2023-06-15T00:53:46.008Z,0.00
2023-06-15T00:54:45.205Z,0.00
2023-06-15T00:55:45.936Z,0.00
2023-06-15T00:56:45.172Z,0.00
2023-06-15T00:57:45.222Z,0.00
2023-06-15T00:58:45.148Z,0.00
2023-06-15T00:59:45.143Z,0.00
2023-06-15T01:00:45.159Z,0.00
2023-06-15T01:01:45.156Z,0.00
2023-06-15T01:02:45.169Z,0.00
2023-06-15T01:03:45.121Z,0.00
2023-06-15T01:04:45.162Z,0.00
2023-06-15T01:05:45.110Z,0.00
2023-06-15T01:06:45.106Z,0.00
2023-06-15T01:07:45.102Z,0.00
2023-06-15T01:08:45.080Z,0.00
2023-06-15T01:09:45.084Z,0.00
2023-06-15T01:10:45.092Z,0.00
2023-06-15T01:11:45.065Z,0.00
2023-06-15T01:12:45.955Z,0.00
2023-06-15T01:13:45.048Z,0.00
2023-06-15T01:14:45.043Z,0.00
2023-06-15T01:15:45.037Z,0.00
2023-06-15T01:16:45.051Z,0.00
2023-06-15T01:17:45.121Z,0.00
2023-06-15T01:18:45.035Z,0.00
2023-06-15T01:19:45.019Z,0.00
2023-06-15T01:20:45.000Z,0.00
2023-06-15T01:21:44.996Z,0.00
2023-06-15T01:22:44.992Z,0.00
2023-06-15T01:23:45.017Z,0.00
2023-06-15T01:24:44.978Z,0.00
2023-06-15T01:25:44.969Z,0.00
2023-06-15T01:26:44.952Z,0.00
2023-06-15T01:27:44.948Z,0.00
2023-06-15T01:28:44.939Z,0.00
2023-06-15T01:29:44.941Z,0.00
2023-06-15T01:30:44.956Z,0.00
2023-06-15T01:31:45.961Z,0.00
2023-06-15T01:32:44.963Z,0.00
2023-06-15T01:33:44.907Z,0.00
2023-06-15T01:34:44.903Z,0.00
2023-06-15T01:35:44.885Z,0.00
2023-06-15T01:36:45.473Z,0.00
2023-06-15T01:37:44.880Z,0.00
2023-06-15T01:38:44.874Z,0.00
2023-06-15T01:39:44.866Z,0.00
2023-06-15T01:40:44.843Z,0.00
2023-06-15T01:41:44.855Z,0.00
2023-06-15T01:42:44.826Z,0.00
2023-06-15T01:43:44.814Z,0.00
2023-06-15T01:44:44.820Z,0.00
2023-06-15T01:45:44.801Z,0.00
2023-06-15T01:46:44.851Z,0.00
2023-06-15T01:47:44.839Z,0.00
2023-06-15T01:48:44.778Z,0.00
2023-06-15T01:49:44.775Z,0.00
2023-06-15T01:50:44.799Z,0.00
2023-06-15T01:51:44.796Z,0.00
2023-06-15T01:52:45.735Z,0.00
2023-06-15T01:53:44.754Z,0.00
2023-06-15T01:54:44.725Z,0.00
2023-06-15T01:55:44.726Z,0.00
2023-06-15T01:56:44.708Z,0.00
2023-06-15T01:57:44.706Z,0.00
2023-06-15T01:58:45.529Z,0.00
2023-06-15T01:59:44.691Z,0.00
2023-06-15T02:00:44.711Z,0.00
2023-06-15T02:01:44.689Z,0.00
2023-06-15T02:02:44.719Z,0.00
2023-06-15T02:03:44.658Z,0.00
2023-06-15T02:04:44.670Z,0.00
2023-06-15T02:05:46.538Z,0.00
2023-06-15T02:06:47.518Z,0.00
2023-06-15T02:07:44.640Z,0.00
2023-06-15T02:08:44.618Z,0.00
2023-06-15T02:09:44.611Z,0.00
2023-06-15T02:10:44.607Z,0.00
2023-06-15T02:11:44.615Z,0.00
2023-06-15T02:12:44.585Z,0.00
2023-06-15T02:13:44.602Z,0.00
2023-06-15T02:14:44.627Z,0.00
2023-06-15T02:15:44.553Z,0.00
2023-06-15T02:16:45.555Z,4.00
2023-06-15T02:17:44.570Z,4.00
2023-06-15T02:18:45.545Z,4.00
2023-06-15T02:19:45.484Z,4.00
2023-06-15T02:20:44.841Z,0.00
2023-06-15T02:21:44.526Z,0.00
2023-06-15T02:22:44.524Z,4.00
2023-06-15T02:23:44.543Z,4.00
2023-06-15T02:24:44.580Z,4.00
2023-06-15T02:25:44.460Z,4.00
2023-06-15T02:26:44.473Z,4.00
2023-06-15T02:27:44.478Z,8.00
2023-06-15T02:28:44.465Z,4.00
2023-06-15T02:29:45.956Z,8.00
2023-06-15T02:30:44.435Z,8.00
2023-06-15T02:31:44.422Z,8.00
2023-06-15T02:32:44.442Z,8.00
2023-06-15T02:33:44.453Z,8.00
2023-06-15T02:34:44.432Z,12.00
2023-06-15T02:35:45.057Z,12.00
2023-06-15T02:36:44.988Z,16.00
2023-06-15T02:37:44.949Z,16.00
2023-06-15T02:38:44.367Z,16.00
2023-06-15T02:39:44.345Z,20.00
2023-06-15T02:40:44.354Z,24.00
2023-06-15T02:41:44.375Z,28.00
2023-06-15T02:42:44.347Z,32.00
2023-06-15T02:43:44.961Z,32.00
2023-06-15T02:44:44.378Z,40.00
2023-06-15T02:45:45.062Z,44.00
2023-06-15T02:46:45.037Z,48.00
2023-06-15T02:47:45.366Z,56.00
2023-06-15T02:48:44.290Z,60.00
2023-06-15T02:49:44.308Z,68.00
2023-06-15T02:50:44.278Z,76.00
2023-06-15T02:51:44.268Z,84.00
2023-06-15T02:52:44.251Z,96.00
2023-06-15T02:53:46.070Z,108.00
2023-06-15T02:54:44.239Z,116.00
2023-06-15T02:55:44.224Z,132.00
2023-06-15T02:56:44.231Z,140.00
2023-06-15T02:57:45.959Z,156.00
2023-06-15T02:58:44.215Z,176.00
2023-06-15T02:59:44.195Z,188.00
2023-06-15T03:00:44.178Z,208.00
2023-06-15T03:01:44.190Z,224.00
2023-06-15T03:02:44.346Z,240.00
2023-06-15T03:03:44.171Z,264.00
2023-06-15T03:04:44.157Z,284.00
2023-06-15T03:05:44.158Z,308.00
2023-06-15T03:06:45.988Z,336.00
2023-06-15T03:07:46.044Z,360.00
2023-06-15T03:08:44.129Z,392.00
2023-06-15T03:09:44.133Z,424.00
2023-06-15T03:10:44.555Z,456.00
2023-06-15T03:11:45.046Z,492.00
2023-06-15T03:12:44.112Z,532.00
2023-06-15T03:13:44.097Z,576.00
2023-06-15T03:14:44.079Z,624.00
2023-06-15T03:15:44.088Z,672.00
2023-06-15T03:16:44.079Z,724.00
2023-06-15T03:17:44.084Z,776.00
2023-06-15T03:18:44.033Z,836.00
2023-06-15T03:19:44.040Z,896.00
2023-06-15T03:20:44.076Z,956.00
2023-06-15T03:21:44.031Z,1024.00
2023-06-15T03:22:44.031Z,1096.00
2023-06-15T03:23:44.065Z,1172.00
2023-06-15T03:24:44.019Z,1252.00
2023-06-15T03:25:43.990Z,1344.00
2023-06-15T03:26:44.026Z,1440.00
2023-06-15T03:27:44.981Z,1540.00
2023-06-15T03:28:44.560Z,1644.00
2023-06-15T03:29:43.970Z,1756.00
2023-06-15T03:30:43.966Z,1872.00
2023-06-15T03:31:43.974Z,1984.00
2023-06-15T03:32:43.988Z,2104.00
2023-06-15T03:33:43.929Z,2228.00
2023-06-15T03:34:47.009Z,2360.00
2023-06-15T03:35:43.910Z,2544.00
2023-06-15T03:36:43.900Z,2736.00
2023-06-15T03:37:44.903Z,3024.00
2023-06-15T03:38:43.869Z,3576.00
2023-06-15T03:39:43.898Z,4280.00
2023-06-15T03:40:44.485Z,4716.00
2023-06-15T03:41:43.859Z,5080.00
2023-06-15T03:42:43.888Z,5524.00
2023-06-15T03:43:43.841Z,5940.00
2023-06-15T03:44:43.848Z,6276.00
2023-06-15T03:45:43.842Z,6696.00
2023-06-15T03:46:43.819Z,7012.00
2023-06-15T03:47:43.895Z,7324.00
2023-06-15T03:48:43.833Z,7604.00
2023-06-15T03:49:43.813Z,7728.00
2023-06-15T03:50:43.837Z,8092.00
2023-06-15T03:51:43.813Z,8832.00
2023-06-15T03:52:43.807Z,9440.00
2023-06-15T03:53:44.486Z,10016.00
2023-06-15T03:54:43.763Z,10656.00
2023-06-15T03:55:43.766Z,11264.00
2023-06-15T03:56:43.755Z,12224.00
2023-06-15T03:57:43.723Z,12928.00
2023-06-15T03:58:43.784Z,13664.00
2023-06-15T03:59:43.717Z,14304.00
2023-06-15T04:00:43.752Z,14848.00
2023-06-15T04:01:43.697Z,15808.00
2023-06-15T04:02:43.722Z,16512.00
2023-06-15T04:03:43.791Z,17056.00
2023-06-15T04:04:43.724Z,17344.00
2023-06-15T04:05:43.694Z,17376.00
2023-06-15T04:06:43.692Z,15968.00
2023-06-15T04:07:43.659Z,17440.00
2023-06-15T04:08:43.644Z,19648.00
2023-06-15T04:09:44.475Z,21216.00
2023-06-15T04:10:44.571Z,21696.00
2023-06-15T04:11:43.618Z,21728.00
2023-06-15T04:12:43.612Z,22208.00
2023-06-15T04:13:43.602Z,23328.00
2023-06-15T04:14:43.981Z,24352.00
2023-06-15T04:15:43.608Z,22912.00
2023-06-15T04:16:43.594Z,23872.00
2023-06-15T04:17:43.680Z,26464.00
2023-06-15T04:18:43.560Z,27136.00
2023-06-15T04:19:43.586Z,27456.00
2023-06-15T04:20:43.548Z,28192.00
2023-06-15T04:21:43.557Z,28960.00
2023-06-15T04:22:43.553Z,30080.00
2023-06-15T04:23:43.622Z,30912.00
2023-06-15T04:24:43.529Z,30496.00
2023-06-15T04:25:43.509Z,30080.00
2023-06-15T04:26:43.536Z,32064.00
2023-06-15T04:27:43.486Z,32832.00
2023-06-15T04:28:43.498Z,32320.00
2023-06-15T04:29:43.476Z,33056.00
2023-06-15T04:30:43.483Z,34592.00
2023-06-15T04:31:43.518Z,35552.00
2023-06-15T04:32:44.146Z,35968.00
2023-06-15T04:33:43.802Z,35808.00
2023-06-15T04:34:43.453Z,36448.00
2023-06-15T04:35:43.432Z,36800.00
2023-06-15T04:36:44.050Z,37536.00
2023-06-15T04:37:43.425Z,37120.00
2023-06-15T04:38:43.448Z,36864.00
2023-06-15T04:39:43.407Z,38240.00
2023-06-15T04:40:43.426Z,39840.00
2023-06-15T04:41:43.392Z,40064.00
2023-06-15T04:42:43.393Z,40352.00
2023-06-15T04:43:43.409Z,41856.00
2023-06-15T04:44:43.394Z,41728.00
2023-06-15T04:45:43.376Z,41568.00
2023-06-15T04:46:43.363Z,42464.00
2023-06-15T04:47:43.429Z,43360.00
2023-06-15T04:48:43.329Z,45472.00
2023-06-15T04:49:43.365Z,46720.00
2023-06-15T04:50:43.327Z,46592.00
2023-06-15T04:51:43.328Z,45664.00
2023-06-15T04:52:43.309Z,46048.00
2023-06-15T04:53:43.315Z,45824.00
2023-06-15T04:54:44.085Z,44864.00
2023-06-15T04:55:43.290Z,44480.00
2023-06-15T04:56:44.034Z,36320.00
2023-06-15T04:57:43.281Z,42016.00
2023-06-15T04:58:43.284Z,47360.00
2023-06-15T04:59:43.261Z,48192.00
2023-06-15T05:00:43.254Z,47168.00
2023-06-15T05:01:43.244Z,48064.00
2023-06-15T05:02:43.386Z,48960.00
2023-06-15T05:03:43.262Z,48864.00
2023-06-15T05:04:43.247Z,48640.00
2023-06-15T05:05:43.220Z,51616.00
2023-06-15T05:06:43.220Z,54848.00
2023-06-15T05:07:43.197Z,53056.00
2023-06-15T05:08:43.196Z,50080.00
2023-06-15T05:09:43.305Z,51136.00
2023-06-15T05:10:46.502Z,53760.00
2023-06-15T05:11:44.175Z,54304.00
2023-06-15T05:12:44.011Z,55104.00
2023-06-15T05:13:43.167Z,57088.00
2023-06-15T05:14:43.185Z,57664.00
2023-06-15T05:15:44.050Z,58048.00
2023-06-15T05:16:43.129Z,60096.00
2023-06-15T05:17:43.159Z,60672.00
2023-06-15T05:18:43.118Z,59104.00
2023-06-15T05:19:43.132Z,57408.00
2023-06-15T05:20:45.052Z,59136.00
2023-06-15T05:21:43.081Z,60352.00
2023-06-15T05:22:43.122Z,60224.00
2023-06-15T05:23:43.185Z,59936.00
2023-06-15T05:24:43.068Z,59904.00
2023-06-15T05:25:43.078Z,58848.00
2023-06-15T05:26:43.041Z,59008.00
2023-06-15T05:27:43.047Z,57728.00
2023-06-15T05:28:44.689Z,56736.00
2023-06-15T05:29:44.015Z,58432.00
2023-06-15T05:30:43.035Z,57664.00
2023-06-15T05:31:43.066Z,54592.00
2023-06-15T05:32:43.060Z,55072.00
2023-06-15T05:33:43.003Z,55392.00
2023-06-15T05:34:42.995Z,54784.00
2023-06-15T05:35:43.030Z,54048.00
2023-06-15T05:36:55.724Z,54336.00
2023-06-15T05:37:44.995Z,55456.00
2023-06-15T05:38:42.966Z,57792.00
2023-06-15T05:39:42.966Z,59488.00
2023-06-15T05:40:42.947Z,60480.00
2023-06-15T05:41:43.807Z,61344.00
2023-06-15T05:42:45.528Z,62048.00
2023-06-15T05:43:44.610Z,63232.00
2023-06-15T05:44:43.597Z,63456.00
2023-06-15T05:45:42.932Z,62848.00
2023-06-15T05:46:42.914Z,61600.00
2023-06-15T05:48:16.548Z,62752.00
2023-06-15T05:48:43.608Z,64960.00
2023-06-15T05:49:42.896Z,63328.00
2023-06-15T05:50:42.911Z,61056.00
2023-06-15T05:51:42.873Z,63520.00
2023-06-15T05:52:48.071Z,66432.00
2023-06-15T05:53:42.876Z,65440.00
2023-06-15T05:54:42.856Z,64960.00
2023-06-15T05:55:42.848Z,64288.00
2023-06-15T05:56:42.858Z,64032.00
2023-06-15T05:57:42.830Z,64736.00
2023-06-15T05:58:42.814Z,63424.00
2023-06-15T05:59:42.812Z,63232.00
2023-06-15T06:00:42.864Z,64160.00
2023-06-15T06:01:43.512Z,65184.00
2023-06-15T06:02:42.975Z,68256.00
2023-06-15T06:03:42.786Z,68896.00
2023-06-15T06:04:42.791Z,66592.00
2023-06-15T06:05:42.784Z,65376.00
2023-06-15T06:06:42.837Z,64800.00
2023-06-15T06:07:43.561Z,64352.00
2023-06-15T06:08:42.748Z,65248.00
2023-06-15T06:09:42.753Z,65408.00
2023-06-15T06:10:43.643Z,63648.00
2023-06-15T06:11:42.736Z,63584.00
2023-06-15T06:12:42.736Z,66240.00
2023-06-15T06:13:42.728Z,65856.00
2023-06-15T06:14:42.719Z,65824.00
2023-06-15T06:15:42.698Z,67808.00
2023-06-15T06:16:42.717Z,68704.00
2023-06-15T06:17:59.361Z,67552.00
2023-06-15T06:18:44.715Z,66752.00
2023-06-15T06:19:44.554Z,67776.00
2023-06-15T06:20:44.693Z,67008.00
2023-06-15T06:21:42.683Z,67232.00
2023-06-15T06:22:43.654Z,68064.00
2023-06-15T06:23:42.711Z,67936.00
2023-06-15T06:24:42.781Z,67712.00
2023-06-15T06:25:42.673Z,67680.00
2023-06-15T06:26:42.657Z,68288.00
2023-06-15T06:27:42.621Z,66752.00
2023-06-15T06:28:42.597Z,66208.00
2023-06-15T06:29:43.678Z,67584.00
2023-06-15T06:30:42.590Z,65952.00
2023-06-15T06:31:42.594Z,66656.00
2023-06-15T06:32:42.606Z,67392.00
2023-06-15T06:33:43.139Z,66112.00
2023-06-15T06:34:42.578Z,66208.00
2023-06-15T06:35:42.567Z,66208.00
2023-06-15T06:36:42.587Z,66112.00
2023-06-15T06:37:42.574Z,64128.00
2023-06-15T06:38:53.374Z,63392.00
2023-06-15T06:39:44.601Z,62624.00
2023-06-15T06:40:42.530Z,62464.00
2023-06-15T06:41:42.520Z,61472.00
2023-06-15T06:42:43.090Z,62816.00
2023-06-15T06:43:43.174Z,63584.00
2023-06-15T06:44:42.503Z,63456.00
2023-06-15T06:45:43.593Z,64800.00
2023-06-15T06:46:42.500Z,66432.00
2023-06-15T06:47:42.541Z,63808.00
2023-06-15T06:48:43.081Z,60672.00
2023-06-15T06:49:42.480Z,62112.00
2023-06-15T06:50:42.476Z,62592.00
2023-06-15T06:51:42.489Z,61824.00
2023-06-15T06:52:42.547Z,61536.00
2023-06-15T06:53:42.433Z,60672.00
2023-06-15T06:54:42.452Z,58848.00
2023-06-15T06:55:42.438Z,57376.00
2023-06-15T06:56:42.478Z,56128.00
2023-06-15T06:57:42.431Z,55776.00
2023-06-15T06:58:42.414Z,51808.00
2023-06-15T06:59:44.302Z,46112.00
2023-06-15T07:00:44.175Z,40448.00
2023-06-15T07:01:44.360Z,39296.00
2023-06-15T07:02:42.519Z,38944.00
2023-06-15T07:03:42.479Z,38752.00
2023-06-15T07:05:50.079Z,38400.00
2023-06-15T07:06:49.233Z,38304.00
2023-06-15T07:07:49.216Z,38176.00
2023-06-15T07:08:49.220Z,37888.00
2023-06-15T07:09:49.188Z,37600.00
2023-06-15T07:10:49.188Z,37536.00
2023-06-15T07:11:50.294Z,37408.00
2023-06-15T07:12:50.306Z,37024.00
2023-06-15T07:13:50.294Z,36896.00
2023-06-15T07:14:50.261Z,36352.00
2023-06-15T07:15:50.295Z,36064.00
2023-06-15T07:16:50.358Z,36064.00
2023-06-15T07:17:50.279Z,35744.00
2023-06-15T07:18:50.234Z,35936.00
2023-06-15T07:19:50.236Z,36096.00
2023-06-15T07:20:50.289Z,36736.00
2023-06-15T07:21:50.265Z,36736.00
2023-06-15T07:22:50.214Z,36992.00
2023-06-15T07:23:54.433Z,38080.00
2023-06-15T07:24:53.234Z,39424.00
2023-06-15T07:25:52.188Z,41600.00
2023-06-15T07:26:50.185Z,44992.00
2023-06-15T07:27:50.191Z,48896.00
2023-06-15T07:28:51.184Z,50688.00
2023-06-15T07:29:50.201Z,51232.00
2023-06-15T07:30:50.152Z,48992.00
2023-06-15T07:31:50.210Z,49056.00
2023-06-15T07:32:50.246Z,49376.00
2023-06-15T07:33:50.149Z,47744.00
2023-06-15T07:34:52.121Z,43680.00
2023-06-15T07:35:50.137Z,41792.00
2023-06-15T07:36:50.154Z,42784.00
2023-06-15T07:37:50.123Z,43904.00
2023-06-15T07:38:50.106Z,42560.00
2023-06-15T07:39:50.140Z,40032.00
2023-06-15T07:40:50.155Z,38688.00
2023-06-15T07:41:50.121Z,38304.00
2023-06-15T07:42:50.074Z,38656.00
2023-06-15T07:43:50.066Z,39648.00
2023-06-15T07:44:50.073Z,40096.00
2023-06-15T07:45:50.725Z,39264.00
2023-06-15T07:46:50.616Z,37888.00
2023-06-15T07:47:50.075Z,37600.00
2023-06-15T07:48:50.040Z,38240.00
2023-06-15T07:49:50.026Z,38016.00
2023-06-15T07:50:50.268Z,37760.00
2023-06-15T07:51:58.869Z,37952.00
2023-06-15T07:52:52.024Z,37984.00
2023-06-15T07:53:49.997Z,37792.00
2023-06-15T07:54:50.238Z,37248.00
2023-06-15T07:55:49.987Z,36128.00
2023-06-15T07:56:49.970Z,36096.00
2023-06-15T07:57:49.963Z,36352.00
2023-06-15T07:58:51.732Z,35936.00
2023-06-15T07:59:50.609Z,35040.00
2023-06-15T08:00:49.975Z,34464.00
2023-06-15T08:01:49.949Z,33696.00
2023-06-15T08:02:51.747Z,33184.00
2023-06-15T08:03:49.973Z,32896.00
2023-06-15T08:04:49.918Z,32992.00
2023-06-15T08:05:51.741Z,33600.00
2023-06-15T08:07:57.997Z,32992.00
2023-06-15T08:08:57.980Z,33184.00
2023-06-15T08:09:58.966Z,32672.00
2023-06-15T08:10:57.962Z,31840.00
2023-06-15T08:11:59.804Z,29344.00
2023-06-15T08:13:00.051Z,24992.00
2023-06-15T08:13:59.042Z,22592.00
2023-06-15T08:14:59.046Z,21440.00
2023-06-15T08:15:59.047Z,20352.00
2023-06-15T08:16:59.034Z,19328.00
2023-06-15T08:17:59.083Z,18592.00
2023-06-15T08:18:59.022Z,17664.00
2023-06-15T08:19:59.011Z,16852.00
2023-06-15T08:20:59.004Z,16168.00
2023-06-15T08:21:58.983Z,15524.00
2023-06-15T08:22:58.982Z,14964.00
2023-06-15T08:23:59.007Z,14448.00
2023-06-15T08:24:58.999Z,14028.00
2023-06-15T08:25:59.020Z,13692.00
2023-06-15T08:26:58.962Z,13392.00
2023-06-15T08:27:58.959Z,13028.00
2023-06-15T08:29:59.946Z,12560.00
2023-06-15T08:30:58.913Z,12352.00
2023-06-15T08:31:59.916Z,12160.00
2023-06-15T08:32:58.974Z,11944.00
2023-06-15T08:33:58.990Z,11832.00
2023-06-15T08:34:58.895Z,11612.00
2023-06-15T08:35:58.874Z,11544.00
2023-06-15T08:36:58.905Z,11352.00
2023-06-15T08:37:59.461Z,11256.00
2023-06-15T08:38:58.869Z,11176.00
2023-06-15T08:40:58.855Z,11044.00
2023-06-15T08:41:58.973Z,10964.00
2023-06-15T08:42:58.869Z,10920.00
2023-06-15T08:43:58.827Z,10860.00
2023-06-15T08:45:00.448Z,10780.00
2023-06-15T08:45:59.375Z,10760.00
2023-06-15T08:46:58.808Z,10676.00
2023-06-15T08:47:59.810Z,10636.00
2023-06-15T08:49:00.440Z,10592.00
2023-06-15T08:49:58.784Z,10560.00
2023-06-15T08:50:58.754Z,10520.00
2023-06-15T08:52:00.392Z,10504.00
2023-06-15T08:52:58.740Z,10444.00
2023-06-15T08:53:59.385Z,10468.00
2023-06-15T08:55:00.374Z,10404.00
2023-06-15T08:55:59.395Z,10392.00
2023-06-15T08:56:58.728Z,10468.00
2023-06-15T08:57:58.698Z,10472.00
2023-06-15T08:58:58.707Z,10440.00
2023-06-15T08:59:58.705Z,10428.00
2023-06-15T09:00:59.681Z,10448.00
2023-06-15T09:01:59.440Z,10408.00
2023-06-15T09:02:58.759Z,10400.00
2023-06-15T09:05:05.535Z,10056.00
2023-06-15T09:06:05.527Z,9976.00
2023-06-15T09:07:07.362Z,9924.00
2023-06-15T09:08:06.613Z,9888.00
2023-06-15T09:09:06.656Z,9768.00
2023-06-15T09:10:06.601Z,9848.00
2023-06-15T09:11:06.634Z,9660.00
2023-06-15T09:12:06.615Z,9680.00
2023-06-15T09:13:06.584Z,9684.00
2023-06-15T09:14:06.567Z,9756.00
2023-06-15T09:15:06.550Z,9684.00
2023-06-15T09:16:06.548Z,9624.00
2023-06-15T09:17:07.914Z,9668.00
2023-06-15T09:18:07.624Z,9876.00
2023-06-15T09:19:06.527Z,9596.00
2023-06-15T09:20:06.540Z,9628.00
2023-06-15T09:21:07.512Z,9596.00
2023-06-15T09:22:06.492Z,9616.00
2023-06-15T09:23:06.561Z,9596.00
2023-06-15T09:24:06.537Z,9576.00
2023-06-15T09:25:06.504Z,9588.00
2023-06-15T09:26:07.386Z,9576.00
2023-06-15T09:27:07.420Z,9588.00
2023-06-15T09:29:12.864Z,9596.00
2023-06-15T09:30:12.762Z,9644.00
2023-06-15T09:31:12.768Z,9676.00
2023-06-15T09:32:12.745Z,9812.00
2023-06-15T09:33:15.595Z,9996.00
2023-06-15T09:34:12.750Z,10208.00
2023-06-15T09:35:12.737Z,10436.00
2023-06-15T09:36:12.713Z,10544.00
2023-06-15T09:37:13.803Z,10764.00
2023-06-15T09:38:13.790Z,11016.00
2023-06-15T09:39:15.661Z,11024.00
2023-06-15T09:40:13.784Z,10980.00
2023-06-15T09:41:13.789Z,11064.00
2023-06-15T09:42:13.761Z,11200.00
2023-06-15T09:43:13.768Z,11460.00
2023-06-15T09:44:13.743Z,11784.00
2023-06-15T09:45:15.604Z,11636.00
2023-06-15T09:46:13.775Z,12156.00
2023-06-15T09:47:17.604Z,12332.00
2023-06-15T09:48:14.237Z,12292.00
2023-06-15T09:49:15.609Z,12192.00
2023-06-15T09:50:13.683Z,11772.00
2023-06-15T09:51:13.699Z,11324.00
2023-06-15T09:52:15.598Z,11060.00
2023-06-15T09:53:15.622Z,10776.00
2023-06-15T09:54:13.673Z,10716.00
2023-06-15T09:55:13.665Z,10448.00
2023-06-15T09:56:28.638Z,10356.00
2023-06-15T09:57:15.652Z,9688.00
2023-06-15T09:58:13.625Z,9124.00
2023-06-15T09:59:13.634Z,9132.00
2023-06-15T10:00:13.616Z,9188.00
2023-06-15T10:01:15.208Z,9180.00
2023-06-15T10:02:13.640Z,9284.00
2023-06-15T10:03:13.606Z,9592.00
2023-06-15T10:04:13.643Z,9676.00
2023-06-15T10:05:13.604Z,9552.00
2023-06-15T10:06:13.602Z,9232.00
2023-06-15T10:07:13.596Z,8896.00
2023-06-15T10:08:14.557Z,9876.00
2023-06-15T10:09:13.552Z,10084.00
2023-06-15T10:10:14.248Z,10344.00
2023-06-15T10:11:13.568Z,10156.00
2023-06-15T10:12:14.212Z,9740.00
2023-06-15T10:13:13.523Z,9572.00
2023-06-15T10:14:13.496Z,9476.00
2023-06-15T10:15:15.224Z,9372.00
2023-06-15T10:16:13.484Z,9324.00
2023-06-15T10:17:15.146Z,9304.00
2023-06-15T10:18:13.568Z,9308.00
2023-06-15T10:19:13.496Z,9148.00
2023-06-15T10:20:13.531Z,8916.00
2023-06-15T10:21:13.442Z,8672.00
2023-06-15T10:22:13.469Z,8488.00
2023-06-15T10:23:13.434Z,8712.00
2023-06-15T10:24:13.497Z,8264.00
2023-06-15T10:25:13.751Z,8268.00
2023-06-15T10:26:13.394Z,8256.00
2023-06-15T10:27:13.422Z,8308.00
2023-06-15T10:28:14.190Z,8400.00
2023-06-15T10:29:13.398Z,8384.00
2023-06-15T10:30:13.414Z,8300.00
2023-06-15T10:31:13.383Z,8192.00
2023-06-15T10:32:13.405Z,8076.00
2023-06-15T10:33:13.768Z,7980.00
2023-06-15T10:34:13.347Z,7460.00
2023-06-15T10:35:13.369Z,6744.00
2023-06-15T10:36:13.346Z,7424.00
2023-06-15T10:37:14.155Z,7864.00
2023-06-15T10:38:14.164Z,8084.00
2023-06-15T10:39:13.321Z,8316.00
2023-06-15T10:40:13.765Z,8412.00
2023-06-15T10:41:13.311Z,8556.00
2023-06-15T10:42:13.732Z,8628.00
2023-06-15T10:43:13.296Z,8524.00
2023-06-15T10:44:13.299Z,8252.00
2023-06-15T10:45:13.263Z,7920.00
2023-06-15T10:46:13.286Z,7692.00
2023-06-15T10:47:15.633Z,7508.00
2023-06-15T10:48:14.126Z,7424.00
2023-06-15T10:49:13.240Z,7400.00
2023-06-15T10:50:13.271Z,7404.00
2023-06-15T10:51:14.136Z,7376.00
2023-06-15T10:52:14.244Z,7384.00
2023-06-15T10:54:20.989Z,7468.00
2023-06-15T10:55:22.073Z,7592.00
2023-06-15T10:56:22.197Z,7596.00
2023-06-15T10:57:22.086Z,7732.00
2023-06-15T10:58:22.059Z,8140.00
2023-06-15T10:59:22.056Z,8168.00
2023-06-15T11:00:22.121Z,8364.00
2023-06-15T11:01:22.616Z,8452.00
2023-06-15T11:02:23.872Z,8656.00
2023-06-15T11:03:22.876Z,9352.00
2023-06-15T11:04:22.082Z,9116.00
2023-06-15T11:05:22.032Z,9388.00
2023-06-15T11:06:22.998Z,8508.00
2023-06-15T11:07:22.005Z,9188.00
2023-06-15T11:08:22.463Z,7664.00
2023-06-15T11:09:21.985Z,7336.00
2023-06-15T11:10:22.070Z,7068.00
2023-06-15T11:11:22.049Z,6836.00
2023-06-15T11:12:22.016Z,6968.00
2023-06-15T11:13:21.950Z,7108.00
2023-06-15T11:14:21.956Z,7900.00
2023-06-15T11:15:21.936Z,7528.00
2023-06-15T11:16:21.936Z,7284.00
2023-06-15T11:17:23.504Z,7496.00
2023-06-15T11:18:23.439Z,7084.00
2023-06-15T11:19:23.869Z,6772.00
2023-06-15T11:20:21.891Z,6676.00
2023-06-15T11:21:21.889Z,6640.00
2023-06-15T11:22:21.978Z,6676.00
2023-06-15T11:23:21.889Z,6812.00
2023-06-15T11:24:21.950Z,6956.00
2023-06-15T11:25:23.371Z,7088.00
2023-06-15T11:26:21.853Z,7164.00
2023-06-15T11:27:21.833Z,7244.00
2023-06-15T11:28:35.065Z,7368.00
2023-06-15T11:29:23.868Z,7364.00
2023-06-15T11:30:21.825Z,7408.00
2023-06-15T11:31:21.839Z,7516.00
2023-06-15T11:32:21.892Z,7544.00
2023-06-15T11:33:21.847Z,7728.00
2023-06-15T11:34:21.786Z,7872.00
2023-06-15T11:35:21.779Z,8028.00
2023-06-15T11:36:23.367Z,7916.00
2023-06-15T11:37:23.371Z,7664.00
2023-06-15T11:38:23.409Z,7372.00
2023-06-15T11:39:23.467Z,7288.00
2023-06-15T11:40:21.751Z,7252.00
2023-06-15T11:41:21.743Z,7208.00
2023-06-15T11:42:22.452Z,7100.00
2023-06-15T11:43:21.723Z,6636.00
2023-06-15T11:44:21.725Z,7224.00
2023-06-15T11:45:21.746Z,7068.00
2023-06-15T11:46:21.706Z,7392.00
2023-06-15T11:47:21.763Z,7444.00
2023-06-15T11:48:21.679Z,7572.00
2023-06-15T11:49:21.662Z,7696.00
2023-06-15T11:50:21.666Z,7724.00
2023-06-15T11:51:21.685Z,7768.00
2023-06-15T11:52:21.707Z,7696.00
2023-06-15T11:53:21.633Z,7312.00
2023-06-15T11:54:23.436Z,7864.00
2023-06-15T11:55:21.652Z,8092.00
2023-06-15T11:56:21.619Z,8152.00
2023-06-15T11:57:24.472Z,8096.00
2023-06-15T11:58:21.589Z,8112.00
2023-06-15T11:59:21.573Z,7824.00
2023-06-15T12:00:21.590Z,7692.00
2023-06-15T12:01:21.652Z,7568.00
2023-06-15T12:02:21.589Z,6424.00
2023-06-15T12:03:21.571Z,6852.00
2023-06-15T12:04:21.574Z,6376.00
2023-06-15T12:05:21.581Z,5964.00
2023-06-15T12:06:21.551Z,5624.00
2023-06-15T12:07:32.633Z,5316.00
2023-06-15T12:08:23.523Z,5208.00
2023-06-15T12:09:21.532Z,5184.00
2023-06-15T12:10:21.504Z,5220.00
2023-06-15T12:11:21.493Z,5308.00
2023-06-15T12:12:21.513Z,5440.00
2023-06-15T12:13:21.501Z,6684.00
2023-06-15T12:14:21.491Z,6648.00
2023-06-15T12:15:21.501Z,6684.00
2023-06-15T12:16:21.492Z,6732.00
2023-06-15T12:17:21.511Z,6732.00
2023-06-15T12:18:21.438Z,6596.00
2023-06-15T12:19:23.434Z,6484.00
2023-06-15T12:20:21.503Z,6516.00